Time;durP1;ratioP1;P1;durP2;ratioP2;P2;SDS_P1;SDS_P2;PMS_P1;PMS_P2;Temp;Humidity;BMP_temperature;BMP_pressure;BME280_temperature;BME280_humidity;BME280_pressure;Samples;Min_cycle;Max_cycle;Signal;HPM_P1;HPM_P2
2022/01/06 00:00:37;;;;;;;5.07;4.73;;;;;;;0.56;89.66;100862.88;5012096;28;20862;-45
2022/01/06 00:03:04;;;;;;;9.70;5.30;;;;;;;0.54;89.59;100868.22;5011589;28;20457;-43
2022/01/06 00:05:32;;;;;;;5.93;5.43;;;;;;;0.52;89.69;100866.69;5012094;28;20776;-43
2022/01/06 00:08:02;;;;;;;5.50;5.10;;;;;;;0.49;89.12;100874.81;5011391;28;20548;-45
2022/01/06 00:10:31;;;;;;;4.73;4.37;;;;;;;0.50;89.44;100882.56;5011679;28;20465;-43
2022/01/06 00:13:12;;;;;;;6.67;4.73;;;;;;;0.50;89.87;100887.81;5011427;28;20552;-44
2022/01/06 00:15:55;;;;;;;4.87;4.53;;;;;;;0.51;88.92;100886.84;5011548;28;20508;-44
2022/01/06 00:18:33;;;;;;;6.13;4.40;;;;;;;0.52;89.28;100895.56;5011167;28;21077;-43
2022/01/06 00:23:48;;;;;;;4.97;4.73;;;;;;;0.52;89.80;100904.25;5011524;28;20447;-44
2022/01/06 00:26:15;;;;;;;5.20;4.83;;;;;;;0.51;90.11;100899.97;5011462;28;20430;-43
2022/01/06 00:28:43;;;;;;;5.07;4.67;;;;;;;0.52;90.05;100906.06;5011082;28;20548;-43
2022/01/06 00:31:10;;;;;;;5.57;5.10;;;;;;;0.49;91.32;100901.06;5011608;28;20472;-43
2022/01/06 00:33:38;;;;;;;4.93;4.73;;;;;;;0.45;91.09;100904.88;5011288;28;20437;-45
2022/01/06 00:36:06;;;;;;;5.70;5.10;;;;;;;0.42;91.61;100911.22;5011697;28;20476;-44
2022/01/06 00:38:33;;;;;;;5.87;5.47;;;;;;;0.40;92.10;100907.06;5010968;28;20469;-45
2022/01/06 00:41:02;;;;;;;5.37;5.17;;;;;;;0.38;92.03;100922.97;5014826;28;20429;-45
2022/01/06 00:43:30;;;;;;;5.70;5.20;;;;;;;0.35;92.63;100915.34;5014923;28;20445;-43
2022/01/06 00:45:58;;;;;;;7.43;6.07;;;;;;;0.33;92.66;100924.28;5014768;28;20434;-43
2022/01/06 00:48:26;;;;;;;5.10;4.80;;;;;;;0.31;92.93;100926.19;5014364;28;20507;-43
2022/01/06 00:50:53;;;;;;;5.37;4.97;;;;;;;0.30;94.32;100925.34;5014712;28;20438;-44
2022/01/06 00:53:21;;;;;;;5.23;4.83;;;;;;;0.31;93.52;100924.41;5014764;28;20447;-43
2022/01/06 00:55:49;;;;;;;6.10;5.50;;;;;;;0.31;94.06;100934.06;5014753;28;20487;-43
2022/01/06 00:58:18;;;;;;;5.40;5.00;;;;;;;0.31;93.33;100931.44;5014282;28;20579;-43
2022/01/06 01:00:46;;;;;;;5.13;4.73;;;;;;;0.30;93.55;100930.59;5014508;28;21017;-44
2022/01/06 01:03:16;;;;;;;8.50;5.77;;;;;;;0.31;92.90;100932.28;5014413;28;20470;-43
2022/01/06 01:05:46;;;;;;;8.73;5.60;;;;;;;0.29;93.37;100933.38;5014488;28;20425;-43
2022/01/06 01:08:14;;;;;;;5.43;5.00;;;;;;;0.24;92.81;100948.66;5013992;28;20549;-44
2022/01/06 01:10:43;;;;;;;16.03;5.73;;;;;;;0.22;92.44;100951.38;5014509;28;20433;-43
2022/01/06 01:13:12;;;;;;;5.40;4.90;;;;;;;0.21;92.75;100952.34;5013933;28;20464;-43
2022/01/06 01:15:47;;;;;;;5.40;5.17;;;;;;;0.23;93.42;100950.44;5014215;28;20530;-43
2022/01/06 01:18:18;;;;;;;5.73;5.37;;;;;;;0.23;93.40;100955.69;5013753;28;20993;-43
2022/01/06 01:20:46;;;;;;;5.20;5.00;;;;;;;0.19;93.63;100967.38;5014459;28;20810;-44
2022/01/06 01:23:14;;;;;;;6.10;5.57;;;;;;;0.18;93.78;100970.94;5013887;28;21049;-43
2022/01/06 01:25:42;;;;;;;6.40;5.80;;;;;;;0.21;94.57;100972.50;5014238;28;20520;-44
2022/01/06 01:28:10;;;;;;;5.97;5.57;;;;;;;0.23;93.64;100979.28;5013669;28;20465;-44
2022/01/06 01:30:51;;;;;;;5.60;5.20;;;;;;;0.28;93.68;100971.88;5013843;28;21042;-44
2022/01/06 01:33:21;;;;;;;5.17;4.77;;;;;;;0.30;93.48;100969.94;5013777;28;20448;-44
2022/01/06 01:35:48;;;;;;;6.37;5.97;;;;;;;0.29;92.57;100976.16;5013708;28;21019;-43
2022/01/06 01:38:16;;;;;;;5.73;5.40;;;;;;;0.29;92.81;100978.78;5013312;28;20493;-44
2022/01/06 01:40:44;;;;;;;4.53;4.27;;;;;;;0.31;92.88;100969.00;5013829;28;20525;-43
2022/01/06 01:43:11;;;;;;;5.63;5.03;;;;;;;0.30;91.99;100972.56;5011092;28;20464;-43
2022/01/06 01:45:45;;;;;;;5.20;5.00;;;;;;;0.29;92.02;100978.78;5013789;28;20491;-43
2022/01/06 01:48:22;;;;;;;6.20;5.70;;;;;;;0.31;91.88;100992.59;5013532;28;20839;-43
2022/01/06 01:50:51;;;;;;;5.37;5.03;;;;;;;0.33;92.20;100995.94;5013350;28;20819;-43
2022/01/06 01:53:19;;;;;;;5.27;5.00;;;;;;;0.36;92.23;101000.13;5013502;28;20833;-43
2022/01/06 01:55:46;;;;;;;5.50;4.97;;;;;;;0.38;91.51;101003.44;5013706;28;20617;-45
2022/01/06 01:58:14;;;;;;;5.47;5.10;;;;;;;0.40;91.30;101018.09;5013046;28;20469;-45
2022/01/06 02:00:42;;;;;;;7.47;4.60;;;;;;;0.39;91.25;101031.31;5013609;28;20433;-44
2022/01/06 02:03:09;;;;;;;6.10;5.70;;;;;;;0.39;92.51;101045.28;5013301;28;20922;-43
2022/01/06 02:05:37;;;;;;;5.50;5.20;;;;;;;0.43;93.12;101053.72;5013542;28;20430;-43
2022/01/06 02:08:07;;;;;;;5.03;4.83;;;;;;;0.52;92.86;101048.59;5012814;28;20544;-45
2022/01/06 02:10:35;;;;;;;5.53;5.20;;;;;;;0.60;92.32;101063.69;5013196;28;20435;-43
2022/01/06 02:13:03;;;;;;;5.17;4.90;;;;;;;0.62;90.77;101074.91;5012920;28;20663;-43
2022/01/06 02:15:32;;;;;;;5.60;5.23;;;;;;;0.64;89.86;101077.41;5043381;23;20996;-42
2022/01/06 02:17:59;;;;;;;5.43;5.13;;;;;;;0.67;89.31;101066.66;5031811;28;20476;-42
2022/01/06 02:20:29;;;;;;;5.27;4.97;;;;;;;0.71;89.44;101062.81;5032927;28;20523;-43
2022/01/06 02:22:57;;;;;;;5.97;5.47;;;;;;;0.75;89.10;101061.59;5032678;28;20988;-43
2022/01/06 02:25:29;;;;;;;7.40;6.77;;;;;;;0.81;88.57;101061.09;5033034;28;20891;-42
2022/01/06 02:27:57;;;;;;;6.57;5.80;;;;;;;0.78;88.20;101063.97;5032361;28;21068;-42
2022/01/06 02:30:26;;;;;;;5.17;4.83;;;;;;;0.77;89.34;101078.09;5032619;28;21061;-42
2022/01/06 02:32:55;;;;;;;5.40;4.57;;;;;;;0.74;89.46;101078.34;5032314;28;20437;-42
2022/01/06 02:35:24;;;;;;;5.40;5.00;;;;;;;0.74;90.16;101080.94;5032575;28;20539;-42
2022/01/06 02:37:53;;;;;;;5.33;5.03;;;;;;;0.73;89.59;101077.50;5032247;28;20468;-43
2022/01/06 02:40:23;;;;;;;5.83;5.43;;;;;;;0.68;89.67;101078.81;5032606;28;20965;-42
2022/01/06 02:42:52;;;;;;;5.37;4.97;;;;;;;0.63;89.68;101076.56;5019859;28;20529;-45
2022/01/06 02:45:21;;;;;;;5.43;4.83;;;;;;;0.62;89.53;101082.78;5012694;28;20459;-42
2022/01/06 02:47:49;;;;;;;5.47;5.23;;;;;;;0.59;89.51;101083.03;5012153;28;21019;-41
2022/01/06 02:50:18;;;;;;;4.83;4.40;;;;;;;0.53;89.40;101073.03;5012875;28;20429;-43
2022/01/06 02:52:46;;;;;;;7.77;5.23;;;;;;;0.50;89.75;101081.16;5012579;28;20441;-42
2022/01/06 02:55:17;;;;;;;5.90;5.60;;;;;;;0.40;89.42;101067.94;5012568;28;20461;-45
2022/01/06 02:57:45;;;;;;;5.83;5.43;;;;;;;0.33;89.01;101079.06;5012137;28;20465;-42
2022/01/06 03:00:16;;;;;;;4.70;4.50;;;;;;;0.25;89.64;101089.31;5012226;28;20482;-44
2022/01/06 03:02:46;;;;;;;6.53;5.13;;;;;;;0.15;89.51;101089.19;5012032;28;20441;-41
2022/01/06 03:05:17;;;;;;;5.10;4.80;;;;;;;0.05;89.77;101093.53;5012609;28;20453;-44
2022/01/06 03:07:45;;;;;;;6.37;4.97;;;;;;;-0.04;90.27;101094.25;5012111;28;20465;-43
2022/01/06 03:10:16;;;;;;;4.90;4.60;;;;;;;-0.12;90.27;101107.94;5012235;28;20528;-44
2022/01/06 03:12:44;;;;;;;4.73;4.53;;;;;;;-0.20;90.78;101104.25;5012098;28;20436;-43
2022/01/06 03:15:14;;;;;;;5.07;4.50;;;;;;;-0.28;91.34;101115.31;5012043;28;21187;-44
2022/01/06 03:17:44;;;;;;;4.90;4.40;;;;;;;-0.33;91.91;101117.44;5011868;28;20473;-44
2022/01/06 03:20:14;;;;;;;5.93;5.40;;;;;;;-0.34;92.72;101117.59;5012472;28;20524;-43
2022/01/06 03:22:42;;;;;;;4.80;4.40;;;;;;;-0.35;92.64;101121.97;5012069;28;20433;-46
2022/01/06 03:25:12;;;;;;;5.20;4.87;;;;;;;-0.40;93.48;101121.50;5012048;28;20582;-45
2022/01/06 03:27:42;;;;;;;6.67;5.30;;;;;;;-0.41;93.81;101125.06;5009767;28;20456;-44
2022/01/06 03:30:12;;;;;;;5.03;4.57;;;;;;;-0.41;94.04;101139.94;5012297;28;20448;-45
2022/01/06 03:32:40;;;;;;;6.00;5.70;;;;;;;-0.43;94.19;101141.88;5012232;28;20429;-41
2022/01/06 03:35:09;;;;;;;5.33;5.10;;;;;;;-0.43;95.03;101140.09;5011924;28;21065;-41
2022/01/06 03:37:37;;;;;;;5.67;5.20;;;;;;;-0.40;95.16;101133.78;5011666;28;20472;-44
2022/01/06 03:40:06;;;;;;;5.20;4.90;;;;;;;-0.40;95.28;101134.59;5011908;28;20781;-46
2022/01/06 03:42:35;;;;;;;5.37;4.97;;;;;;;-0.42;94.96;101127.81;5011891;28;20449;-44
2022/01/06 03:45:07;;;;;;;4.90;4.40;;;;;;;-0.45;94.71;101133.28;5011982;28;20811;-42
2022/01/06 03:47:34;;;;;;;5.23;4.97;;;;;;;-0.49;94.42;101129.22;5011568;28;20460;-44
2022/01/06 03:50:02;;;;;;;11.10;5.10;;;;;;;-0.53;95.07;101135.63;5011943;28;20524;-46
2022/01/06 03:52:29;;;;;;;6.73;6.23;;;;;;;-0.56;95.16;101137.56;5012026;28;20464;-43
2022/01/06 03:54:57;;;;;;;5.93;5.63;;;;;;;-0.58;95.10;101146.47;5012163;28;20449;-43
2022/01/06 03:57:25;;;;;;;5.23;4.83;;;;;;;-0.57;95.31;101156.03;5011488;28;20469;-45
2022/01/06 03:59:52;;;;;;;4.90;4.60;;;;;;;-0.60;95.20;101148.38;5012007;28;20812;-43
2022/01/06 04:02:22;;;;;;;4.80;4.50;;;;;;;-0.61;95.67;101157.19;5011885;28;20444;-43
2022/01/06 04:04:50;;;;;;;4.73;4.30;;;;;;;-0.62;95.68;101161.59;5011708;28;20456;-43
2022/01/06 04:07:17;;;;;;;4.80;4.40;;;;;;;-0.63;95.04;101167.75;5011274;28;20453;-42
2022/01/06 04:09:45;;;;;;;5.40;5.03;;;;;;;-0.66;95.42;101177.66;5011948;28;20437;-46
2022/01/06 04:12:12;;;;;;;4.90;4.70;;;;;;;-0.69;95.75;101180.50;5012629;28;20429;-45
2022/01/06 04:14:40;;;;;;;4.23;4.00;;;;;;;-0.70;95.45;101176.19;5015113;28;20460;-45
2022/01/06 04:17:09;;;;;;;4.40;4.00;;;;;;;-0.74;95.53;101185.22;5014829;28;20429;-43
2022/01/06 04:19:38;;;;;;;4.37;3.97;;;;;;;-0.75;95.90;101191.44;5015319;28;20964;-42
2022/01/06 04:22:06;;;;;;;4.50;4.30;;;;;;;-0.78;95.35;101195.13;5015292;28;20933;-47
2022/01/06 04:24:34;;;;;;;5.63;4.50;;;;;;;-0.82;95.56;101195.44;5015226;28;20452;-42
2022/01/06 04:27:03;;;;;;;4.17;3.87;;;;;;;-0.85;95.45;101198.28;5014945;28;20429;-42
2022/01/06 04:29:30;;;;;;;5.03;4.50;;;;;;;-0.88;96.25;101193.28;5015216;28;20544;-43
2022/01/06 04:31:58;;;;;;;11.37;4.23;;;;;;;-0.90;96.29;101209.09;5015038;28;20435;-42
2022/01/06 04:34:26;;;;;;;8.60;4.00;;;;;;;-0.90;96.11;101208.25;5014865;28;20464;-46
2022/01/06 04:36:57;;;;;;;3.67;3.37;;;;;;;-0.90;96.38;101200.41;5015346;28;20516;-45
2022/01/06 04:39:25;;;;;;;5.20;4.10;;;;;;;-0.90;96.03;101213.50;5014818;28;20994;-45
2022/01/06 04:41:52;;;;;;;6.50;4.10;;;;;;;-0.91;96.21;101206.59;5015182;28;20467;-42
2022/01/06 04:44:20;;;;;;;4.07;3.80;;;;;;;-0.91;95.97;101215.28;5014930;28;20453;-42
2022/01/06 04:46:47;;;;;;;4.83;4.40;;;;;;;-0.89;96.13;101218.59;5015974;28;20433;-42
2022/01/06 04:49:15;;;;;;;4.97;4.47;;;;;;;-0.88;96.32;101227.31;5015128;28;20511;-44
2022/01/06 04:51:43;;;;;;;5.53;4.80;;;;;;;-0.86;96.13;101221.00;5015057;28;20436;-44
2022/01/06 04:54:12;;;;;;;4.77;4.37;;;;;;;-0.82;96.01;101232.94;5014586;28;20469;-43
2022/01/06 04:56:40;;;;;;;7.87;4.97;;;;;;;-0.79;95.62;101237.09;5014834;28;20442;-43
2022/01/06 04:59:09;;;;;;;4.17;3.87;;;;;;;-0.80;95.83;101231.03;5014043;28;20935;-43
2022/01/06 05:01:38;;;;;;;5.07;4.77;;;;;;;-0.81;96.21;101237.25;5014700;28;20869;-44
2022/01/06 05:04:06;;;;;;;6.13;4.87;;;;;;;-0.82;96.13;101248.66;5014474;28;20465;-44
2022/01/06 05:06:34;;;;;;;4.67;4.40;;;;;;;-0.85;95.97;101245.41;5014726;28;20460;-43
2022/01/06 05:09:01;;;;;;;5.10;4.70;;;;;;;-0.89;96.56;101250.03;5014082;28;20548;-43
2022/01/06 05:11:30;;;;;;;5.70;5.30;;;;;;;-0.93;96.36;101253.00;5014467;28;20532;-42
2022/01/06 05:13:58;;;;;;;4.93;4.53;;;;;;;-0.95;96.21;101257.47;5013924;28;20463;-42
2022/01/06 05:16:25;;;;;;;4.93;4.63;;;;;;;-1.02;96.07;101262.34;5014260;28;20529;-42
2022/01/06 05:18:53;;;;;;;4.43;4.20;;;;;;;-1.06;96.17;101263.50;5012147;28;20535;-42
2022/01/06 05:21:21;;;;;;;5.00;4.60;;;;;;;-1.12;96.37;101270.00;5014528;28;20859;-45
2022/01/06 05:23:50;;;;;;;5.83;5.30;;;;;;;-1.24;96.24;101272.66;5013164;28;20472;-44
2022/01/06 05:26:17;;;;;;;5.40;5.20;;;;;;;-1.21;96.43;101273.28;5014068;28;20437;-41
2022/01/06 05:28:46;;;;;;;5.40;5.00;;;;;;;-1.21;96.33;101275.06;5013546;28;20468;-47
2022/01/06 05:31:15;;;;;;;5.30;4.90;;;;;;;-1.24;95.94;101276.09;5014361;28;20437;-41
2022/01/06 05:33:43;;;;;;;5.70;5.37;;;;;;;-1.32;96.50;101283.66;5013847;28;20433;-43
2022/01/06 05:36:11;;;;;;;5.60;5.10;;;;;;;-1.33;96.18;101287.22;5014035;28;21157;-44
2022/01/06 05:38:38;;;;;;;8.07;6.27;;;;;;;-1.34;96.07;101282.91;5013289;28;20477;-45
2022/01/06 05:41:06;;;;;;;5.00;4.73;;;;;;;-1.38;96.42;101289.34;5014276;28;20433;-42
2022/01/06 05:43:33;;;;;;;5.50;5.20;;;;;;;-1.38;95.82;101296.34;5013929;28;20447;-44
2022/01/06 05:46:02;;;;;;;5.50;5.13;;;;;;;-1.39;95.83;101292.03;5013951;28;20445;-43
2022/01/06 05:48:30;;;;;;;4.60;4.50;;;;;;;-1.38;96.24;101306.81;5013342;28;20738;-42
2022/01/06 05:50:58;;;;;;;5.43;5.13;;;;;;;-1.41;96.22;101309.63;5013765;28;21131;-43
2022/01/06 05:53:26;;;;;;;5.33;5.03;;;;;;;-1.44;96.56;101297.59;5013492;28;20447;-43
2022/01/06 05:55:53;;;;;;;5.93;5.50;;;;;;;-1.44;95.94;101292.38;5013604;28;20465;-43
2022/01/06 05:58:21;;;;;;;6.00;5.50;;;;;;;-1.45;95.80;101303.78;5013042;28;20832;-43
2022/01/06 06:00:50;;;;;;;6.00;5.50;;;;;;;-1.50;96.38;101300.66;5013842;28;20484;-43
2022/01/06 06:03:20;;;;;;;6.10;5.80;;;;;;;-1.54;96.30;101308.78;5013366;28;20531;-42
2022/01/06 06:05:47;;;;;;;5.93;5.60;;;;;;;-1.59;96.54;101311.72;5013315;28;20456;-43
2022/01/06 06:08:15;;;;;;;6.20;5.80;;;;;;;-1.62;96.25;101306.72;5013071;28;20465;-42
2022/01/06 06:10:43;;;;;;;9.53;5.70;;;;;;;-1.66;95.90;101315.69;5013698;28;20893;-42
2022/01/06 06:13:10;;;;;;;5.83;5.57;;;;;;;-1.70;96.04;101316.84;5013274;28;20432;-44
2022/01/06 06:15:38;;;;;;;7.63;5.70;;;;;;;-1.73;96.42;101319.66;5013165;28;20544;-44
2022/01/06 06:18:09;;;;;;;5.50;5.20;;;;;;;-1.76;96.64;101325.94;5012863;28;20813;-43
2022/01/06 06:20:38;;;;;;;5.93;5.63;;;;;;;-1.80;96.12;101328.88;5013555;28;20544;-42
2022/01/06 06:23:06;;;;;;;5.87;5.53;;;;;;;-1.84;96.13;101332.63;5012903;28;20441;-45
2022/01/06 06:25:35;;;;;;;6.43;5.93;;;;;;;-1.86;96.55;101337.13;5013127;28;20459;-46
2022/01/06 06:28:02;;;;;;;7.33;5.70;;;;;;;-1.92;95.95;101333.16;5012681;28;20476;-43
2022/01/06 06:30:30;;;;;;;6.20;5.60;;;;;;;-1.93;96.64;101348.94;5013048;28;20796;-43
2022/01/06 06:33:00;;;;;;;6.50;6.07;;;;;;;-1.97;96.70;101345.66;5012632;28;20517;-43
2022/01/06 06:35:27;;;;;;;6.03;5.73;;;;;;;-2.02;96.31;101357.38;5013069;28;20544;-41
2022/01/06 06:37:56;;;;;;;6.30;5.90;;;;;;;-2.05;96.64;101366.25;5012693;28;20471;-43
2022/01/06 06:40:24;;;;;;;6.77;6.17;;;;;;;-2.08;96.49;101384.75;5012902;28;20477;-44
2022/01/06 06:42:52;;;;;;;6.07;5.77;;;;;;;-2.10;96.57;101373.56;5012300;28;20956;-43
2022/01/06 06:45:22;;;;;;;6.20;5.90;;;;;;;-2.11;96.62;101384.09;5012540;28;20535;-43
2022/01/06 06:47:50;;;;;;;6.80;6.17;;;;;;;-2.13;96.08;101388.59;5012554;28;20469;-43
2022/01/06 06:50:21;;;;;;;7.10;6.57;;;;;;;-2.14;96.56;101386.91;5012957;28;20516;-43
2022/01/06 06:52:49;;;;;;;6.73;6.13;;;;;;;-2.14;96.48;101397.38;5012549;28;20476;-45
2022/01/06 06:55:18;;;;;;;6.90;6.50;;;;;;;-2.15;96.29;101393.91;5012700;28;20479;-45
2022/01/06 06:57:45;;;;;;;6.70;6.40;;;;;;;-2.14;96.22;101400.81;5012090;28;20465;-44
2022/01/06 07:00:14;;;;;;;7.57;6.80;;;;;;;-2.14;96.49;101399.97;5012417;28;20479;-46
2022/01/06 07:02:42;;;;;;;6.83;6.33;;;;;;;-2.14;96.23;101397.38;5012427;28;20437;-42
2022/01/06 07:05:11;;;;;;;7.30;6.80;;;;;;;-2.18;96.05;101396.72;5012556;28;20536;-43
2022/01/06 07:07:39;;;;;;;7.20;6.47;;;;;;;-2.20;96.43;101403.84;5010268;28;20463;-42
2022/01/06 07:10:07;;;;;;;7.67;6.93;;;;;;;-2.22;96.68;101399.66;5012353;28;20515;-43
2022/01/06 07:12:39;;;;;;;6.40;5.97;;;;;;;-2.25;96.49;101403.31;5012030;28;20860;-43
2022/01/06 07:15:08;;;;;;;6.87;6.47;;;;;;;-2.26;96.18;101405.06;5012368;28;20464;-43
2022/01/06 07:17:35;;;;;;;8.10;7.30;;;;;;;-2.28;96.49;101420.00;5012036;28;20550;-48
2022/01/06 07:20:04;;;;;;;6.77;6.37;;;;;;;-2.28;96.09;101421.78;5012263;28;20483;-46
2022/01/06 07:22:31;;;;;;;8.03;7.07;;;;;;;-2.31;95.87;101435.88;5012046;28;20433;-44
2022/01/06 07:25:01;;;;;;;6.90;6.50;;;;;;;-2.31;96.49;101442.88;5013007;28;20567;-40
2022/01/06 07:27:28;;;;;;;8.50;8.00;;;;;;;-2.33;95.94;101442.97;5013369;28;20460;-41
2022/01/06 07:29:57;;;;;;;9.80;7.30;;;;;;;-2.33;95.91;101439.53;5012772;28;20429;-44
2022/01/06 07:32:25;;;;;;;6.93;6.60;;;;;;;-2.35;96.09;101446.59;5011456;28;20441;-43
2022/01/06 07:34:56;;;;;;;7.80;7.40;;;;;;;-2.36;96.07;101442.34;5013486;28;20449;-41
2022/01/06 07:37:23;;;;;;;7.17;6.77;;;;;;;-2.39;95.92;101445.97;5012251;28;20536;-42
2022/01/06 07:39:51;;;;;;;7.00;6.40;;;;;;;-2.38;96.01;101459.84;5012171;28;20568;-46
2022/01/06 07:42:19;;;;;;;6.30;6.10;;;;;;;-2.39;96.08;101466.84;5012078;28;20459;-44
2022/01/06 07:44:49;;;;;;;9.67;7.57;;;;;;;-2.40;95.92;101477.41;5011547;28;20463;-44
2022/01/06 07:47:19;;;;;;;10.90;7.20;;;;;;;-2.40;95.93;101482.63;5012145;28;20464;-47
2022/01/06 07:49:46;;;;;;;9.77;6.40;;;;;;;-2.40;96.22;101491.31;5016028;28;20429;-43
2022/01/06 07:52:14;;;;;;;7.40;6.90;;;;;;;-2.40;95.77;101493.94;5015816;28;20437;-46
2022/01/06 07:54:42;;;;;;;7.83;7.33;;;;;;;-2.38;95.71;101499.03;5015844;28;20468;-43
2022/01/06 07:57:10;;;;;;;7.23;6.83;;;;;;;-2.38;96.00;101505.09;5015384;28;20437;-42
2022/01/06 07:59:37;;;;;;;7.83;6.90;;;;;;;-2.36;95.97;101507.63;5015288;28;20480;-44
2022/01/06 08:02:05;;;;;;;7.77;7.17;;;;;;;-2.35;95.42;101509.31;5010898;28;21008;-43
2022/01/06 08:04:35;;;;;;;7.50;6.90;;;;;;;-2.33;95.80;101510.06;5011462;28;20453;-43
2022/01/06 08:07:04;;;;;;;7.83;6.43;;;;;;;-2.31;95.32;101521.25;5004626;28;20437;-43
2022/01/06 08:09:31;;;;;;;6.37;5.87;;;;;;;-2.30;95.81;101520.31;5004967;28;20439;-42
2022/01/06 08:11:59;;;;;;;8.40;5.97;;;;;;;-2.28;95.43;101528.88;5004175;28;20437;-41
2022/01/06 08:14:26;;;;;;;7.87;6.00;;;;;;;-2.26;95.03;101532.25;5003003;28;20500;-46
2022/01/06 08:16:54;;;;;;;6.77;6.37;;;;;;;-2.23;94.94;101545.09;5004511;28;20446;-42
2022/01/06 08:19:22;;;;;;;7.50;6.90;;;;;;;-2.20;95.56;101537.09;5003839;28;20462;-43
2022/01/06 08:21:52;;;;;;;6.50;6.13;;;;;;;-2.17;95.33;101546.50;5004809;28;20452;-42
2022/01/06 08:24:20;;;;;;;6.80;6.30;;;;;;;-2.16;95.14;101546.41;5003805;28;20461;-42
2022/01/06 08:26:47;;;;;;;7.03;6.50;;;;;;;-2.12;95.38;101536.63;5003865;28;20532;-43
2022/01/06 08:29:15;;;;;;;7.50;7.10;;;;;;;-2.08;95.20;101545.94;5002324;28;20472;-44
2022/01/06 08:31:43;;;;;;;7.83;7.30;;;;;;;-2.06;95.52;101538.84;5002905;28;20473;-41
2022/01/06 08:34:10;;;;;;;7.70;7.20;;;;;;;-2.04;95.53;101532.59;5002882;28;20461;-43
2022/01/06 08:36:38;;;;;;;7.77;6.97;;;;;;;-2.03;95.61;101534.25;5003034;28;20430;-44
2022/01/06 08:39:07;;;;;;;7.60;7.00;;;;;;;-2.01;95.70;101539.38;5003141;28;20465;-42
2022/01/06 08:41:35;;;;;;;6.77;6.47;;;;;;;-1.99;96.03;101542.72;5002850;28;20481;-40
2022/01/06 08:44:02;;;;;;;9.50;7.00;;;;;;;-1.98;95.41;101550.50;5003230;28;20560;-41
2022/01/06 08:46:30;;;;;;;10.33;9.47;;;;;;;-1.95;95.55;101550.31;5004399;28;20437;-42
2022/01/06 08:48:58;;;;;;;11.47;8.50;;;;;;;-1.93;95.94;101552.81;5006199;28;20468;-41
2022/01/06 08:51:25;;;;;;;9.70;9.00;;;;;;;-1.88;95.46;101553.38;5003908;28;20524;-41
2022/01/06 08:53:53;;;;;;;7.43;6.90;;;;;;;-1.85;95.79;101554.00;5003256;28;20449;-41
2022/01/06 08:56:22;;;;;;;8.77;7.20;;;;;;;-1.80;95.33;101549.34;5002857;28;20442;-40
2022/01/06 08:58:50;;;;;;;7.37;6.87;;;;;;;-1.74;95.75;101551.56;5002632;28;20469;-41
2022/01/06 09:01:17;;;;;;;8.63;6.10;;;;;;;-1.68;95.97;101550.31;5003444;28;20477;-42
2022/01/06 09:03:45;;;;;;;6.30;5.83;;;;;;;-1.61;95.40;101556.00;5003018;28;20528;-41
2022/01/06 09:06:13;;;;;;;6.27;5.77;;;;;;;-1.53;95.09;101557.19;5003341;28;20819;-42
2022/01/06 09:08:40;;;;;;;6.90;6.40;;;;;;;-1.44;95.65;101561.81;5003647;28;20996;-43
2022/01/06 09:11:08;;;;;;;8.17;7.10;;;;;;;-1.35;95.50;101565.59;5003016;28;20806;-40
2022/01/06 09:13:37;;;;;;;5.93;5.40;;;;;;;-1.26;95.15;101565.84;5002477;28;20445;-42
2022/01/06 09:16:08;;;;;;;9.57;5.60;;;;;;;-1.16;95.61;101560.81;5002126;28;21013;-41
2022/01/06 09:18:36;;;;;;;7.50;6.60;;;;;;;-1.08;95.69;101561.16;5002280;28;20470;-41
2022/01/06 09:21:04;;;;;;;7.27;6.87;;;;;;;-1.00;95.18;101566.72;5002845;28;20888;-43
2022/01/06 09:23:32;;;;;;;7.60;6.90;;;;;;;-0.92;95.21;101577.50;5007158;28;20444;-42
2022/01/06 09:26:00;;;;;;;8.10;7.47;;;;;;;-0.87;95.90;101585.91;5014449;28;20437;-41
2022/01/06 09:28:28;;;;;;;7.23;6.70;;;;;;;-0.76;95.02;101578.16;5015386;28;20465;-42
2022/01/06 09:30:57;;;;;;;9.03;8.27;;;;;;;-0.67;95.50;101580.16;5014493;28;20520;-43
2022/01/06 09:33:25;;;;;;;9.93;7.70;;;;;;;-0.59;95.19;101584.88;5014116;28;20938;-42
2022/01/06 09:35:53;;;;;;;8.37;7.77;;;;;;;-0.50;95.14;101580.78;5014727;28;20449;-41
2022/01/06 09:38:21;;;;;;;9.30;8.40;;;;;;;-0.42;95.01;101589.81;5013865;28;20471;-41
2022/01/06 09:40:48;;;;;;;8.93;8.23;;;;;;;-0.34;95.64;101587.50;5014395;28;20564;-42
2022/01/06 09:43:16;;;;;;;8.20;7.60;;;;;;;-0.26;95.95;101586.94;5014179;28;20468;-41
2022/01/06 09:45:44;;;;;;;9.57;8.90;;;;;;;-0.20;95.89;101592.59;5014245;28;20457;-41
2022/01/06 09:48:13;;;;;;;7.87;6.50;;;;;;;-0.13;95.47;101588.63;5013697;28;20465;-41
2022/01/06 09:50:43;;;;;;;6.83;6.30;;;;;;;-0.04;95.78;101593.22;5012867;28;20434;-44
2022/01/06 09:53:11;;;;;;;7.93;7.30;;;;;;;0.04;95.47;101590.03;5014012;28;20476;-42
2022/01/06 09:55:40;;;;;;;7.77;7.10;;;;;;;0.13;96.10;101589.41;5014146;28;20839;-41
2022/01/06 09:58:08;;;;;;;7.27;6.70;;;;;;;0.24;95.48;101592.09;5013531;28;20492;-44
2022/01/06 10:00:36;;;;;;;7.33;6.83;;;;;;;0.28;95.58;101590.94;5014023;28;20892;-42
2022/01/06 10:03:07;;;;;;;8.70;7.90;;;;;;;0.38;95.48;101598.97;5013569;28;20449;-41
2022/01/06 10:05:41;;;;;;;8.20;7.80;;;;;;;0.48;95.87;101592.94;5017075;28;20469;-40
2022/01/06 10:08:10;;;;;;;8.50;8.10;;;;;;;0.56;95.47;101592.41;5017580;28;20516;-43
2022/01/06 10:10:38;;;;;;;10.63;9.73;;;;;;;0.66;95.35;101589.94;5013322;28;20432;-41
2022/01/06 10:13:08;;;;;;;10.97;10.27;;;;;;;0.73;95.97;101591.16;5013346;28;20531;-41
2022/01/06 10:15:38;;;;;;;12.57;11.43;;;;;;;0.80;96.04;101595.88;5013292;28;20465;-41
2022/01/06 10:18:12;;;;;;;9.57;8.80;;;;;;;0.88;96.39;101593.50;5012944;28;20873;-41
2022/01/06 10:20:41;;;;;;;9.50;8.80;;;;;;;0.96;95.60;101593.75;5013372;28;20432;-41
2022/01/06 10:23:13;;;;;;;9.00;8.40;;;;;;;1.04;95.77;101593.19;5013070;28;20437;-41
2022/01/06 10:25:48;;;;;;;9.70;9.20;;;;;;;1.13;96.00;101595.94;5013096;28;20536;-41
2022/01/06 10:28:23;;;;;;;9.67;9.07;;;;;;;1.23;96.25;101593.47;5012762;28;20457;-42
2022/01/06 10:30:51;;;;;;;9.70;9.10;;;;;;;1.31;96.25;101590.28;5013796;28;20532;-41
2022/01/06 10:33:20;;;;;;;11.10;9.80;;;;;;;1.35;96.16;101599.59;5013353;28;20437;-42
2022/01/06 10:35:49;;;;;;;10.60;9.80;;;;;;;1.38;96.25;101586.22;5013484;28;20457;-42
2022/01/06 10:38:26;;;;;;;9.23;8.67;;;;;;;1.44;96.02;101581.34;5012780;28;20753;-41
2022/01/06 10:40:53;;;;;;;10.17;9.37;;;;;;;1.50;96.23;101586.13;5012923;28;20429;-42
2022/01/06 10:43:33;;;;;;;10.10;9.57;;;;;;;1.58;95.98;101582.91;5012867;28;20507;-43
2022/01/06 10:46:02;;;;;;;9.13;8.40;;;;;;;1.61;96.19;101588.75;5012715;28;20460;-41
2022/01/06 10:48:29;;;;;;;9.57;8.50;;;;;;;1.65;95.55;101584.09;5010528;28;20527;-43
2022/01/06 10:50:59;;;;;;;9.43;8.70;;;;;;;1.65;95.10;101582.31;5012542;28;20437;-44
2022/01/06 10:53:27;;;;;;;12.07;11.07;;;;;;;1.68;94.81;101576.81;5012248;28;20464;-41
2022/01/06 10:55:55;;;;;;;11.00;10.10;;;;;;;1.76;94.89;101583.28;5012478;28;20453;-42
2022/01/06 10:58:25;;;;;;;9.03;8.43;;;;;;;1.85;94.99;101587.81;5012391;28;20461;-41
2022/01/06 11:00:57;;;;;;;8.90;8.30;;;;;;;1.93;95.34;101591.53;5012583;28;20429;-41
2022/01/06 11:03:28;;;;;;;9.30;8.70;;;;;;;1.98;95.06;101581.47;5012633;28;20444;-41
2022/01/06 11:05:58;;;;;;;8.77;8.30;;;;;;;2.05;95.22;101585.31;5012480;28;20878;-41
2022/01/06 11:08:29;;;;;;;8.80;8.30;;;;;;;2.09;94.66;101580.63;5012084;28;20476;-42
2022/01/06 11:11:15;;;;;;;9.20;8.60;;;;;;;2.18;94.76;101588.63;5012472;28;20430;-42
2022/01/06 11:13:45;;;;;;;8.90;8.20;;;;;;;2.21;94.53;101598.09;5012161;28;20811;-43
2022/01/06 11:16:15;;;;;;;8.90;8.30;;;;;;;2.24;94.11;101585.50;5012255;28;20799;-43
2022/01/06 11:18:49;;;;;;;8.07;7.67;;;;;;;2.30;94.30;101584.16;5012638;28;20963;-41
2022/01/06 11:21:19;;;;;;;8.47;7.87;;;;;;;2.38;94.47;101596.72;5012248;28;21017;-41
2022/01/06 11:23:48;;;;;;;9.83;9.07;;;;;;;2.45;94.33;101587.38;5011570;28;20950;-43
2022/01/06 11:26:17;;;;;;;9.23;8.30;;;;;;;2.44;94.13;101597.06;5012304;28;20905;-42
2022/01/06 11:28:55;;;;;;;8.67;8.27;;;;;;;2.50;93.80;101596.59;5011690;28;20468;-41
2022/01/06 11:31:26;;;;;;;8.63;7.80;;;;;;;2.55;93.02;101594.41;5012334;28;20476;-42
2022/01/06 11:33:56;;;;;;;9.63;8.50;;;;;;;2.56;92.69;101590.81;5012024;28;20890;-41
2022/01/06 11:36:30;;;;;;;10.33;8.27;;;;;;;2.61;92.42;101583.38;5012327;28;20520;-42
2022/01/06 11:39:02;;;;;;;9.37;8.60;;;;;;;2.65;92.33;101589.22;5011874;28;20449;-42